Impacts METAR Board
IDs:

KSFO - San Francisco Intl, CA, US

Updated at: 0600 UTC 11 Dec 2018
Potential Impact None Slight Moderate High
Time 10/18Z 10/19Z 10/20Z 10/21Z 10/22Z 10/23Z 11/00Z 11/01Z 11/02Z 11/03Z 11/04Z 11/05Z 11/06Z
Temp50 50 53 54 56 56 57 54 54 54 53 50 50
Dewpt46 46 45 46 46 46 47 47 48 48 48 47 47
Altim30.26 30.25 30.22 30.19 30.17 30.16 30.15 30.17 30.17 30.17 30.17 30.18 30.18
VIS7 7 7 7 9 10 10 10 10 10 10 10 10
CIG22 21 19 21 -- -- -- -- -- -- -- -- --
CoverOVCOVCOVCOVCSCTFEWFEWFEWFEWFEWFEWFEWFEW
FltCatMVFRMVFRMVFRMVFRVFRVFRVFRVFRVFRVFRVFRVFRVFR
WX--------------------------
WDir1300000310102802802800200170
WSpd4 0 0 0 0 4 4 9 7 9 0 3 3
WGst-- -- -- -- -- -- -- -- -- -- -- -- --
Raw hourly METARs
KSFO 101756Z 13004KT 7SM FEW008 OVC022 10/08 A3026 RMK AO2 SLP245 60002 T01000078 10100 20094 53008
KSFO 101856Z 00000KT 7SM FEW008 OVC021 10/08 A3025 RMK AO2 SLP243 T01000078
KSFO 101956Z 00000KT 7SM FEW009 OVC019 12/07 A3022 RMK AO2 SLP233 T01170072
KSFO 102056Z 00000KT 7SM FEW009 OVC021 12/08 A3019 RMK AO2 SLP222 T01220078 58023
KSFO 102156Z 00000KT 9SM SCT019 13/08 A3017 RMK AO2 SLP215 T01330078
KSFO 102256Z 31004KT 10SM FEW019 13/08 A3016 RMK AO2 SLP213 T01330078
KSFO 102356Z 01004KT 10SM FEW150 14/08 A3015 RMK AO2 SLP211 T01390083 10144 20100 56011
KSFO 110056Z 28009KT 10SM FEW011 12/08 A3017 RMK AO2 SLP214 T01220083
KSFO 110156Z 28007KT 10SM FEW200 12/09 A3017 RMK AO2 SLP216 T01220089
KSFO 110256Z 28009KT 10SM FEW200 12/09 A3017 RMK AO2 SLP217 T01220089 51006
KSFO 110356Z 00000KT 10SM FEW200 12/09 A3017 RMK AO2 SLP217 T01170089
KSFO 110456Z 20003KT 10SM FEW200 10/08 A3018 RMK AO2 SLP221 T01000083
KSFO 110556Z 17003KT 10SM FEW200 10/08 A3018 RMK AO2 SLP221 T01000083 10139 20089 51004



Page loaded:  06:22 UTC  |   10:22 PM Pacific  |   11:22 PM Mountain  |   12:22 AM Central  |   01:22 AM Eastern

 

ADVISORIES

FORECASTS

FORECASTS

OBSERVATIONS

USER TOOLS

ABOUT US